createdAt,value
2023-04-11T00:01:54.555Z,22.27
2023-04-11T00:04:22.968Z,23.62
2023-04-11T00:06:50.448Z,22.33
2023-04-11T00:09:17.986Z,22.67
2023-04-11T00:11:45.774Z,24.42
2023-04-11T00:14:13.194Z,23.40
2023-04-11T00:16:41.556Z,23.50
2023-04-11T00:19:12.274Z,22.62
2023-04-11T00:21:40.207Z,23.23
2023-04-11T00:24:08.336Z,23.52
2023-04-11T00:26:36.036Z,23.60
2023-04-11T00:29:03.419Z,22.70
2023-04-11T00:31:30.860Z,22.58
2023-04-11T00:33:58.550Z,22.02
2023-04-11T00:36:27.143Z,23.42
2023-04-11T00:38:55.178Z,23.52
2023-04-11T00:41:24.288Z,24.00
2023-04-11T00:43:51.666Z,22.80
2023-04-11T00:46:19.113Z,23.25
2023-04-11T00:48:48.931Z,21.83
2023-04-11T00:51:16.942Z,21.75
2023-04-11T00:53:45.730Z,21.02
2023-04-11T00:56:13.481Z,21.02
2023-04-11T00:58:41.230Z,20.75
2023-04-11T01:01:11.905Z,20.15
2023-04-11T01:03:40.072Z,20.12
2023-04-11T01:06:13.226Z,21.25
2023-04-11T01:08:42.492Z,20.75
2023-04-11T01:11:12.840Z,19.98
2023-04-11T01:13:40.812Z,19.60
2023-04-11T01:16:10.076Z,20.27
2023-04-11T01:18:37.765Z,18.62
2023-04-11T01:21:05.416Z,18.00
2023-04-11T01:23:34.314Z,18.17
2023-04-11T01:26:01.819Z,18.30
2023-04-11T01:28:29.301Z,18.05
2023-04-11T01:30:57.850Z,18.95
2023-04-11T01:33:25.348Z,18.98
2023-04-11T01:35:52.808Z,18.10
2023-04-11T01:38:21.263Z,19.42
2023-04-11T01:40:48.881Z,18.27
2023-04-11T01:43:16.438Z,18.80
2023-04-11T01:45:44.283Z,18.30
2023-04-11T01:48:11.792Z,18.33
2023-04-11T01:50:39.164Z,18.58
2023-04-11T01:53:06.822Z,18.37
2023-04-11T01:55:34.210Z,18.85
2023-04-11T01:58:01.611Z,19.67
2023-04-11T02:00:29.352Z,18.27
2023-04-11T02:02:57.350Z,19.85
2023-04-11T02:05:24.837Z,20.83
2023-04-11T02:07:52.207Z,20.35
2023-04-11T02:10:21.959Z,20.58
2023-04-11T02:12:49.398Z,20.95
2023-04-11T02:15:16.827Z,20.62
2023-04-11T02:17:45.417Z,20.37
2023-04-11T02:20:13.606Z,20.45
2023-04-11T02:22:41.675Z,18.33
2023-04-11T02:25:09.180Z,18.50
2023-04-11T02:27:36.980Z,19.08
2023-04-11T02:30:07.745Z,19.30
2023-04-11T02:32:35.995Z,18.90
2023-04-11T02:35:05.080Z,18.00
2023-04-11T02:37:32.515Z,18.87
2023-04-11T02:39:59.916Z,18.62
2023-04-11T02:42:27.832Z,19.45
2023-04-11T02:44:55.733Z,20.37
2023-04-11T02:47:26.788Z,19.80
2023-04-11T02:49:55.138Z,20.77
2023-04-11T02:52:23.805Z,20.88
2023-04-11T02:54:51.549Z,21.02
2023-04-11T02:57:19.208Z,21.65
2023-04-11T02:59:46.632Z,21.90
2023-04-11T03:02:15.790Z,21.92
2023-04-11T03:04:43.521Z,21.52
2023-04-11T03:07:12.605Z,19.65
2023-04-11T03:09:40.226Z,20.70
2023-04-11T03:12:07.954Z,19.55
2023-04-11T03:14:35.931Z,19.73
2023-04-11T03:17:03.321Z,20.60
2023-04-11T03:19:32.347Z,19.75
2023-04-11T03:22:01.542Z,21.10
2023-04-11T03:24:28.983Z,20.77
2023-04-11T03:26:57.745Z,21.77
2023-04-11T03:29:25.288Z,21.98
2023-04-11T03:31:53.073Z,21.92
2023-04-11T03:34:21.987Z,23.40
2023-04-11T03:36:51.582Z,21.67
2023-04-11T03:39:22.034Z,21.08
2023-04-11T03:41:50.006Z,21.35
2023-04-11T03:44:17.677Z,20.98
2023-04-11T03:46:46.022Z,21.00
2023-04-11T03:49:13.743Z,21.02
2023-04-11T03:51:41.591Z,20.92
2023-04-11T03:54:09.276Z,22.10
2023-04-11T03:56:37.056Z,20.88
2023-04-11T03:59:05.005Z,20.27
2023-04-11T04:01:33.933Z,20.70
2023-04-11T04:04:02.079Z,21.40
2023-04-11T04:06:30.448Z,21.40
2023-04-11T04:08:59.799Z,20.95
2023-04-11T04:11:29.648Z,22.75
2023-04-11T04:13:57.493Z,20.98
2023-04-11T04:16:25.494Z,22.65
2023-04-11T04:18:53.598Z,22.80
2023-04-11T04:21:21.795Z,23.00
2023-04-11T04:23:51.287Z,22.37
2023-04-11T04:26:25.212Z,23.52
2023-04-11T04:28:54.030Z,23.92
2023-04-11T04:31:25.804Z,24.92
2023-04-11T04:33:58.608Z,23.73
2023-04-11T04:36:26.416Z,24.73
2023-04-11T04:38:56.401Z,26.15
2023-04-11T04:41:23.988Z,25.70
2023-04-11T04:43:58.324Z,27.87
2023-04-11T04:46:26.824Z,26.40
2023-04-11T04:48:54.589Z,27.17
2023-04-11T04:51:22.486Z,26.62
2023-04-11T04:53:50.897Z,25.35
2023-04-11T04:56:19.090Z,25.98
2023-04-11T04:58:47.408Z,23.33
2023-04-11T05:01:16.594Z,22.65
2023-04-11T05:03:46.779Z,22.20
2023-04-11T05:06:14.862Z,22.62
2023-04-11T05:08:43.888Z,20.17
2023-04-11T05:11:11.996Z,21.02
2023-04-11T05:13:39.390Z,18.73
2023-04-11T05:16:07.864Z,18.92
2023-04-11T05:18:36.001Z,21.85
2023-04-11T05:21:05.214Z,22.98
2023-04-11T05:23:33.455Z,24.55
2023-04-11T05:26:01.728Z,21.85
2023-04-11T05:28:31.574Z,22.37
2023-04-11T05:30:59.068Z,22.08
2023-04-11T05:33:27.163Z,22.92
2023-04-11T05:35:55.659Z,23.77
2023-04-11T05:38:24.193Z,24.10
2023-04-11T05:40:52.216Z,24.23
2023-04-11T05:43:19.990Z,20.80
2023-04-11T05:45:48.111Z,21.23
2023-04-11T05:48:19.684Z,22.25
2023-04-11T05:50:48.319Z,20.40
2023-04-11T05:53:15.730Z,20.75
2023-04-11T05:55:44.390Z,20.48
2023-04-11T05:58:11.794Z,19.08
2023-04-11T06:00:39.222Z,19.30
2023-04-11T06:03:08.001Z,18.90
2023-04-11T06:05:36.182Z,19.40
2023-04-11T06:08:05.535Z,18.35
2023-04-11T06:10:33.243Z,19.48
2023-04-11T06:13:09.515Z,18.37
2023-04-11T06:15:38.183Z,18.95
2023-04-11T06:18:05.717Z,18.77
2023-04-11T06:20:33.154Z,18.12
2023-04-11T06:23:01.758Z,18.08
2023-04-11T06:25:29.153Z,19.05
2023-04-11T06:27:57.304Z,19.85
2023-04-11T06:30:25.356Z,20.15
2023-04-11T06:32:52.913Z,18.90
2023-04-11T06:35:24.766Z,19.40
2023-04-11T06:37:52.444Z,18.70
2023-04-11T06:40:20.559Z,18.02
2023-04-11T06:42:48.003Z,17.98
2023-04-11T06:45:16.285Z,16.70
2023-04-11T06:47:43.758Z,16.45
2023-04-11T06:50:11.341Z,16.70
2023-04-11T06:52:38.968Z,15.77
2023-04-11T06:55:07.228Z,14.07
2023-04-11T06:57:34.972Z,11.20
2023-04-11T07:00:04.808Z,12.00
2023-04-11T07:02:32.434Z,14.05
2023-04-11T07:04:59.991Z,12.60
2023-04-11T07:07:27.702Z,13.20
2023-04-11T07:09:55.133Z,14.43
2023-04-11T07:12:24.599Z,12.07
2023-04-11T07:14:52.343Z,14.70
2023-04-11T07:17:19.764Z,15.57
2023-04-11T07:19:47.106Z,13.62
2023-04-11T07:22:14.787Z,16.92
2023-04-11T07:24:43.601Z,15.65
2023-04-11T07:27:14.002Z,19.02
2023-04-11T07:29:41.696Z,18.60
2023-04-11T07:32:09.128Z,16.83
2023-04-11T07:34:36.705Z,17.25
2023-04-11T07:37:05.360Z,17.75
2023-04-11T07:39:33.325Z,20.62
2023-04-11T07:42:01.876Z,18.62
2023-04-11T07:44:29.574Z,17.08
2023-04-11T07:46:57.021Z,17.42
2023-04-11T07:49:24.414Z,18.92
2023-04-11T07:51:52.132Z,18.20
2023-04-11T07:54:25.078Z,17.73
2023-04-11T07:56:52.795Z,17.42
2023-04-11T07:59:20.224Z,17.73
2023-04-11T08:01:47.705Z,16.48
2023-04-11T08:04:15.890Z,17.48
2023-04-11T08:06:44.413Z,16.92
2023-04-11T08:09:12.616Z,16.40
2023-04-11T08:11:40.815Z,16.27
2023-04-11T08:14:08.639Z,15.57
2023-04-11T08:16:36.444Z,15.30
2023-04-11T08:19:04.353Z,16.62
2023-04-11T08:21:32.001Z,19.90
2023-04-11T08:23:59.542Z,17.58
2023-04-11T08:26:27.216Z,19.95
2023-04-11T08:28:54.550Z,18.45
2023-04-11T08:31:22.118Z,19.87
2023-04-11T08:33:50.365Z,22.23
2023-04-11T08:36:17.861Z,19.70
2023-04-11T08:38:45.319Z,19.75
2023-04-11T08:41:12.962Z,20.95
2023-04-11T08:43:40.435Z,24.37
2023-04-11T08:46:08.432Z,22.00
2023-04-11T08:48:36.238Z,20.95
2023-04-11T08:51:03.920Z,19.25
2023-04-11T08:53:31.731Z,19.42
2023-04-11T08:55:59.986Z,21.42
2023-04-11T08:58:27.457Z,23.42
2023-04-11T09:00:54.863Z,22.85
2023-04-11T09:03:22.654Z,21.85
2023-04-11T09:05:50.315Z,21.55
2023-04-11T09:08:17.830Z,21.67
2023-04-11T09:10:46.125Z,22.25
2023-04-11T09:13:24.878Z,23.20
2023-04-11T09:16:09.262Z,21.87
2023-04-11T09:18:41.191Z,20.42
2023-04-11T09:21:11.147Z,22.73
2023-04-11T09:23:39.032Z,24.02
2023-04-11T09:26:08.305Z,21.80
2023-04-11T09:28:50.675Z,21.90
2023-04-11T09:31:18.299Z,22.70
2023-04-11T09:33:54.649Z,20.37
2023-04-11T09:36:23.966Z,17.87
2023-04-11T09:38:52.715Z,19.87
2023-04-11T09:41:38.773Z,19.55
2023-04-11T09:44:07.454Z,17.67
2023-04-11T09:46:35.078Z,17.75
2023-04-11T09:49:02.739Z,14.77
2023-04-11T09:51:35.833Z,17.15
2023-04-11T09:54:06.049Z,16.80
2023-04-11T09:56:37.128Z,17.05
2023-04-11T09:59:05.321Z,18.67
2023-04-11T10:01:33.337Z,19.35
2023-04-11T10:04:01.522Z,19.15
2023-04-11T10:06:41.957Z,17.65
2023-04-11T10:09:13.473Z,20.40
2023-04-11T10:11:45.088Z,19.83
2023-04-11T10:14:37.461Z,18.35
2023-04-11T10:17:22.740Z,19.48
2023-04-11T10:19:57.186Z,20.05
2023-04-11T10:22:43.527Z,17.67
2023-04-11T10:25:24.748Z,17.15
2023-04-11T10:27:54.626Z,15.82
2023-04-11T10:30:40.543Z,16.17
2023-04-11T10:33:12.652Z,18.05
2023-04-11T10:35:58.236Z,18.00
2023-04-11T10:38:41.242Z,16.90
2023-04-11T10:41:19.356Z,17.50
2023-04-11T10:43:47.278Z,18.62
2023-04-11T10:46:19.533Z,18.80
2023-04-11T10:49:00.218Z,17.05
2023-04-11T10:51:30.500Z,16.80
2023-04-11T10:54:02.603Z,16.83
2023-04-11T10:56:42.888Z,16.40
2023-04-11T10:59:32.228Z,14.43
2023-04-11T11:02:01.711Z,15.65
2023-04-11T11:04:36.937Z,13.43
2023-04-11T11:07:06.706Z,18.00
2023-04-11T11:09:34.913Z,12.60
2023-04-11T11:12:06.552Z,13.43
2023-04-11T11:14:34.370Z,12.90
2023-04-11T11:17:03.197Z,12.40
2023-04-11T11:19:31.547Z,12.95
2023-04-11T11:22:08.061Z,12.40
2023-04-11T11:24:35.522Z,13.43
2023-04-11T11:27:03.278Z,12.50
2023-04-11T11:29:33.931Z,12.70
2023-04-11T11:32:03.899Z,13.23
2023-04-11T11:34:34.839Z,13.88
2023-04-11T11:37:06.500Z,14.50
2023-04-11T11:39:34.752Z,16.10
2023-04-11T11:42:02.359Z,14.77
2023-04-11T11:44:31.180Z,14.70
2023-04-11T11:47:03.202Z,16.15
2023-04-11T11:49:49.993Z,16.17
2023-04-11T11:52:33.961Z,14.73
2023-04-11T11:55:03.282Z,12.60
2023-04-11T11:57:31.312Z,11.95
2023-04-11T12:00:01.288Z,13.70
2023-04-11T12:02:28.955Z,12.48
2023-04-11T12:05:00.296Z,14.25
2023-04-11T12:07:32.633Z,13.40
2023-04-11T12:10:01.674Z,14.48
2023-04-11T12:12:37.371Z,12.93
2023-04-11T12:15:16.859Z,13.77
2023-04-11T12:17:49.554Z,13.07
2023-04-11T12:20:18.123Z,13.70
2023-04-11T12:22:45.725Z,15.45
2023-04-11T12:25:14.525Z,13.75
2023-04-11T12:27:43.517Z,14.05
2023-04-11T12:30:12.480Z,13.50
2023-04-11T12:32:39.885Z,13.02
2023-04-11T12:35:08.005Z,13.20
2023-04-11T12:37:35.516Z,13.75
2023-04-11T12:40:09.325Z,12.07
2023-04-11T12:42:45.714Z,10.80
2023-04-11T12:45:20.887Z,8.43
2023-04-11T12:47:48.649Z,7.75
2023-04-11T12:50:16.109Z,7.53
2023-04-11T12:52:43.601Z,7.30
2023-04-11T12:55:12.545Z,6.85
2023-04-11T12:57:40.086Z,7.07
2023-04-11T13:00:10.871Z,6.97
2023-04-11T13:02:43.871Z,8.63
2023-04-11T13:05:15.248Z,8.52
2023-04-11T13:07:45.203Z,7.93
2023-04-11T13:10:16.625Z,7.95
2023-04-11T13:12:45.630Z,7.78
2023-04-11T13:15:15.079Z,6.87
2023-04-11T13:17:42.796Z,6.37
2023-04-11T13:20:11.164Z,6.57
2023-04-11T13:22:41.596Z,8.27
2023-04-11T13:25:09.689Z,7.70
2023-04-11T13:27:39.409Z,7.43
2023-04-11T13:30:08.263Z,7.32
2023-04-11T13:32:36.211Z,6.82
2023-04-11T13:35:04.205Z,6.75
2023-04-11T13:37:31.646Z,6.68
2023-04-11T13:39:59.093Z,7.32
2023-04-11T13:42:26.719Z,8.38
2023-04-11T13:44:54.164Z,10.57
2023-04-11T13:47:21.567Z,8.32
2023-04-11T13:49:49.231Z,6.32
2023-04-11T13:52:16.659Z,7.70
2023-04-11T13:54:44.027Z,6.62
2023-04-11T13:57:11.753Z,7.00
2023-04-11T13:59:39.144Z,6.70
2023-04-11T14:02:07.138Z,7.90
2023-04-11T14:04:34.927Z,6.28
2023-04-11T14:07:02.428Z,6.95
2023-04-11T14:09:29.824Z,5.55
2023-04-11T14:11:57.745Z,5.40
2023-04-11T14:14:25.129Z,5.10
2023-04-11T14:16:52.501Z,4.87
2023-04-11T14:19:22.571Z,4.85
2023-04-11T14:21:51.281Z,4.53
2023-04-11T14:24:21.930Z,4.75
2023-04-11T14:26:50.221Z,5.57
2023-04-11T14:29:17.747Z,5.20
2023-04-11T14:31:45.273Z,5.15
2023-04-11T14:34:13.075Z,5.47
2023-04-11T14:36:40.445Z,5.75
2023-04-11T14:39:08.189Z,5.50
2023-04-11T14:41:36.210Z,5.75
2023-04-11T14:44:03.800Z,5.50
2023-04-11T14:46:31.314Z,5.72
2023-04-11T14:48:58.995Z,5.62
2023-04-11T14:51:28.816Z,8.70
2023-04-11T14:53:56.645Z,6.50
2023-04-11T14:56:24.701Z,11.15
2023-04-11T14:58:52.735Z,7.37
2023-04-11T15:01:20.263Z,9.52
2023-04-11T15:03:48.929Z,8.90
2023-04-11T15:06:16.389Z,13.20
2023-04-11T15:08:44.829Z,11.55
2023-04-11T15:11:12.513Z,11.30
2023-04-11T15:13:40.848Z,10.38
2023-04-11T15:16:08.579Z,9.13
2023-04-11T15:18:36.213Z,10.88
2023-04-11T15:21:03.780Z,10.15
2023-04-11T15:23:31.665Z,11.48
2023-04-11T15:26:01.556Z,11.77
2023-04-11T15:28:34.238Z,11.50
2023-04-11T15:31:02.647Z,12.98
2023-04-11T15:33:31.619Z,12.30
2023-04-11T15:36:00.410Z,12.80
2023-04-11T15:38:28.641Z,13.50
2023-04-11T15:40:59.775Z,15.05
2023-04-11T15:43:27.757Z,14.20
2023-04-11T15:45:55.454Z,13.23
2023-04-11T15:48:22.830Z,15.18
2023-04-11T15:50:51.164Z,17.65
2023-04-11T15:53:19.041Z,16.58
2023-04-11T15:55:47.259Z,15.20
2023-04-11T15:58:16.296Z,16.40
2023-04-11T16:00:44.762Z,16.48
2023-04-11T16:03:13.236Z,15.40
2023-04-11T16:05:43.135Z,14.77
2023-04-11T16:08:11.037Z,13.70
2023-04-11T16:10:38.692Z,14.25
2023-04-11T16:13:06.123Z,12.27
2023-04-11T16:15:33.556Z,14.73
2023-04-11T16:18:01.358Z,11.88
2023-04-11T16:20:28.958Z,11.38
2023-04-11T16:22:57.390Z,10.52
2023-04-11T16:25:25.349Z,9.63
2023-04-11T16:27:52.992Z,10.70
2023-04-11T16:30:20.505Z,9.88
2023-04-11T16:32:48.216Z,9.68
2023-04-11T16:35:15.716Z,9.63
2023-04-11T16:37:43.111Z,9.38
2023-04-11T16:40:13.557Z,9.48
2023-04-11T16:42:40.990Z,9.27
2023-04-11T16:45:09.909Z,10.32
2023-04-11T16:47:37.902Z,9.55
2023-04-11T16:50:06.020Z,10.35
2023-04-11T16:52:33.931Z,10.00
2023-04-11T16:55:03.080Z,10.05
2023-04-11T16:57:33.171Z,11.02
2023-04-11T17:00:01.187Z,10.80
2023-04-11T17:02:29.605Z,10.75
2023-04-11T17:04:57.168Z,10.15
2023-04-11T17:07:24.991Z,10.52
2023-04-11T17:09:53.045Z,11.60
2023-04-11T17:12:21.007Z,11.32
2023-04-11T17:14:49.869Z,13.02
2023-04-11T17:17:17.572Z,10.93
2023-04-11T17:19:44.980Z,12.18
2023-04-11T17:22:12.815Z,11.15
2023-04-11T17:24:40.674Z,27.73
2023-04-11T17:27:08.132Z,18.70
2023-04-11T17:29:35.546Z,12.00
2023-04-11T17:32:04.069Z,11.45
2023-04-11T17:34:31.479Z,11.07
2023-04-11T17:36:59.110Z,11.23
2023-04-11T17:39:26.786Z,12.60
2023-04-11T17:41:54.179Z,10.25
2023-04-11T17:44:21.561Z,10.18
2023-04-11T17:46:49.286Z,10.15
2023-04-11T17:49:16.819Z,9.52
2023-04-11T17:51:52.476Z,9.38
2023-04-11T17:54:26.269Z,11.38
2023-04-11T17:56:53.865Z,9.43
2023-04-11T17:59:21.319Z,9.73
2023-04-11T18:01:49.123Z,9.48
2023-04-11T18:04:17.782Z,8.77
2023-04-11T18:06:48.000Z,9.18
2023-04-11T18:09:18.302Z,9.52
2023-04-11T18:11:46.152Z,7.60
2023-04-11T18:14:13.559Z,8.50
2023-04-11T18:16:41.493Z,9.98
2023-04-11T18:19:09.287Z,9.77
2023-04-11T18:21:36.663Z,11.07
2023-04-11T18:24:04.178Z,10.20
2023-04-11T18:26:32.907Z,14.45
2023-04-11T18:29:01.050Z,10.32
2023-04-11T18:31:28.785Z,7.72
2023-04-11T18:33:57.835Z,7.32
2023-04-11T18:36:26.270Z,7.28
2023-04-11T18:38:55.084Z,6.00
2023-04-11T18:41:23.074Z,8.75
2023-04-11T18:43:51.463Z,6.78
2023-04-11T18:46:20.275Z,6.78
2023-04-11T18:48:48.562Z,6.07
2023-04-11T18:51:16.421Z,6.00
2023-04-11T18:53:44.389Z,5.97
2023-04-11T18:56:13.093Z,6.65
2023-04-11T18:58:45.632Z,6.07
2023-04-11T19:01:17.396Z,5.43
2023-04-11T19:03:47.011Z,5.50
2023-04-11T19:06:15.156Z,4.85
2023-04-11T19:08:44.581Z,5.53
2023-04-11T19:11:12.386Z,5.85
2023-04-11T19:13:42.259Z,5.60
2023-04-11T19:16:11.566Z,6.40
2023-04-11T19:18:40.069Z,5.93
2023-04-11T19:21:08.422Z,5.22
2023-04-11T19:23:36.633Z,5.80
2023-04-11T19:26:04.918Z,5.20
2023-04-11T19:28:34.620Z,5.28
2023-04-11T19:31:03.263Z,5.70
2023-04-11T19:33:31.604Z,5.30
2023-04-11T19:36:00.247Z,5.93
2023-04-11T19:38:28.232Z,5.62
2023-04-11T19:40:56.428Z,6.40
2023-04-11T19:43:25.300Z,6.03
2023-04-11T19:45:53.695Z,6.07
2023-04-11T19:48:22.381Z,6.25
2023-04-11T19:50:52.156Z,6.50
2023-04-11T19:53:23.557Z,5.55
2023-04-11T19:55:53.159Z,5.68
2023-04-11T19:58:21.213Z,5.78
2023-04-11T20:00:49.897Z,5.37
2023-04-11T20:03:22.399Z,5.75
2023-04-11T20:05:50.870Z,5.78
2023-04-11T20:08:21.656Z,5.03
2023-04-11T20:10:50.313Z,5.43
2023-04-11T20:13:18.998Z,5.25
2023-04-11T20:15:47.300Z,4.72
2023-04-11T20:18:16.605Z,4.50
2023-04-11T20:20:45.870Z,4.68
2023-04-11T20:23:15.445Z,4.80
2023-04-11T20:25:43.776Z,4.30
2023-04-11T20:28:12.224Z,3.60
2023-04-11T20:30:40.035Z,2.85
2023-04-11T20:33:07.570Z,3.03
2023-04-11T20:35:35.030Z,2.83
2023-04-11T20:38:02.873Z,2.83
2023-04-11T20:40:30.518Z,3.15
2023-04-11T20:43:00.274Z,3.15
2023-04-11T20:45:29.899Z,3.47
2023-04-11T20:47:57.669Z,3.50
2023-04-11T20:50:25.811Z,3.55
2023-04-11T20:52:53.564Z,3.33
2023-04-11T20:55:21.165Z,3.78
2023-04-11T20:57:48.632Z,3.10
2023-04-11T21:00:20.002Z,3.20
2023-04-11T21:02:49.951Z,2.62
2023-04-11T21:05:20.901Z,2.87
2023-04-11T21:07:48.309Z,2.60
2023-04-11T21:10:16.248Z,3.00
2023-04-11T21:12:51.060Z,2.45
2023-04-11T21:15:19.871Z,2.37
2023-04-11T21:17:47.738Z,2.53
2023-04-11T21:20:18.316Z,2.37
2023-04-11T21:22:50.570Z,2.37
2023-04-11T21:25:18.603Z,2.30
2023-04-11T21:27:46.274Z,2.75
2023-04-11T21:30:15.051Z,2.30
2023-04-11T21:32:42.876Z,2.10
2023-04-11T21:35:11.438Z,2.20
2023-04-11T21:37:38.948Z,1.98
2023-04-11T21:40:07.391Z,2.65
2023-04-11T21:42:38.029Z,2.55
2023-04-11T21:45:05.802Z,2.58
2023-04-11T21:47:33.998Z,2.40
2023-04-11T21:50:01.442Z,2.10
2023-04-11T21:52:28.987Z,2.20
2023-04-11T21:54:56.830Z,3.10
2023-04-11T21:57:24.272Z,2.83
2023-04-11T21:59:51.863Z,3.05
2023-04-11T22:02:19.868Z,2.92
2023-04-11T22:05:01.629Z,3.42
2023-04-11T22:07:48.518Z,3.25
2023-04-11T22:10:22.146Z,3.42
2023-04-11T22:12:49.799Z,3.10
2023-04-11T22:15:18.574Z,3.47
2023-04-11T22:17:50.482Z,3.55
2023-04-11T22:20:19.513Z,4.00
2023-04-11T22:22:48.104Z,4.03
2023-04-11T22:25:18.206Z,3.35
2023-04-11T22:27:45.933Z,3.85
2023-04-11T22:30:14.699Z,3.28
2023-04-11T22:32:42.177Z,3.65
2023-04-11T22:35:10.380Z,2.60
2023-04-11T22:37:37.818Z,2.92
2023-04-11T22:40:06.249Z,3.20
2023-04-11T22:42:34.089Z,2.67
2023-04-11T22:45:01.468Z,2.92
2023-04-11T22:47:28.979Z,2.85
2023-04-11T22:49:57.892Z,2.50
2023-04-11T22:52:26.350Z,2.92
2023-04-11T22:54:55.005Z,2.58
2023-04-11T22:57:22.666Z,2.42
2023-04-11T22:59:51.358Z,2.42
2023-04-11T23:02:19.175Z,2.70
2023-04-11T23:04:46.893Z,2.47
2023-04-11T23:07:14.280Z,2.40
2023-04-11T23:09:44.894Z,3.25
2023-04-11T23:12:12.888Z,2.35
2023-04-11T23:14:40.322Z,2.78
2023-04-11T23:17:07.695Z,2.95
2023-04-11T23:19:36.987Z,2.35
2023-04-11T23:22:04.918Z,2.70
2023-04-11T23:24:32.236Z,3.12
2023-04-11T23:26:59.942Z,2.55
2023-04-11T23:29:27.479Z,2.80
2023-04-11T23:31:54.939Z,2.80
2023-04-11T23:34:22.622Z,3.30
2023-04-11T23:36:49.993Z,2.87
2023-04-11T23:39:17.837Z,2.95
2023-04-11T23:41:45.742Z,3.72
2023-04-11T23:44:13.865Z,3.45
2023-04-11T23:46:41.412Z,3.80
2023-04-11T23:49:09.031Z,3.37
2023-04-11T23:51:36.359Z,3.95
2023-04-11T23:54:04.242Z,3.55
2023-04-11T23:56:32.420Z,3.62
2023-04-11T23:58:59.777Z,3.70
